Pagina principale
METAR-TAF:

METAR-TAF

Aeroporti :

Sullivan County International Airport

Monticello, New York, Stati Uniti

latitudine: 41-42N, longitudine: 074-48W, altezza: 428 m

Osservazione

Il bollettino è stato emesso 59 minuti fa, alle 22:56 UTC
Vento 15 kt da ovest/nord-ovest con raffiche fino a 20 kt
Temperature -7°C
Umidità 67%
Pressione 1019 hPa
Visibilità: 16.1 km
Cielo sereno

METAR: KMSV 182256Z AUTO 30015G20KT 10SM CLR M07/M12 A3009 RMK AO2 SLP212 T10671117 FZRANO

Ora: 18:55 (23:55 UTC)


TAF: mancante

Osservazioni e previsioni meteorologiche di più di 4000 aeroporti (messaggi METAR e TAF).

Le stazioni disponibili sono rappresentate dai dischi gialli e rossi sulla carta.

Puntare il mouse per vedere il nome della stazione.

Clicca sopra per visualizzare le osservazioni e previsioni meteorologiche.

Per cambiare la mappa : fare clic sui pulsanti verdi con una croce nera per ingrandire, il pulsante verde con un trattino per diminuire, o sulla freccia verde per le mappe adiacenti.


METAR-TAF: